createdAt,value
2023-04-03T00:03:29.138Z,2.22
2023-04-03T00:08:33.533Z,2.40
2023-04-03T00:13:36.585Z,1.58
2023-04-03T00:18:41.516Z,1.75
2023-04-03T00:23:44.235Z,1.73
2023-04-03T00:28:47.002Z,1.60
2023-04-03T00:33:51.069Z,2.00
2023-04-03T00:38:53.864Z,1.58
2023-04-03T00:43:57.120Z,1.80
2023-04-03T00:49:01.563Z,1.20
2023-04-03T00:54:08.970Z,2.60
2023-04-03T00:59:17.050Z,2.55
2023-04-03T01:04:30.939Z,1.35
2023-04-03T01:09:34.897Z,1.50
2023-04-03T01:14:37.773Z,1.20
2023-04-03T01:19:49.769Z,1.58
2023-04-03T01:24:54.214Z,1.40
2023-04-03T01:29:57.192Z,1.45
2023-04-03T01:35:01.500Z,1.98
2023-04-03T01:40:04.793Z,1.70
2023-04-03T01:45:08.553Z,1.48
2023-04-03T01:50:12.775Z,1.75
2023-04-03T01:55:16.048Z,1.67
2023-04-03T02:00:19.717Z,1.67
2023-04-03T02:05:23.770Z,1.40
2023-04-03T02:10:26.859Z,1.33
2023-04-03T02:15:29.793Z,1.45
2023-04-03T02:20:34.466Z,2.00
2023-04-03T02:25:38.573Z,1.83
2023-04-03T02:30:41.799Z,1.05
2023-04-03T02:35:54.030Z,1.35
2023-04-03T02:41:02.086Z,1.50
2023-04-03T02:46:05.942Z,1.20
2023-04-03T02:51:10.118Z,1.67
2023-04-03T02:56:13.022Z,1.40
2023-04-03T03:01:16.439Z,1.27
2023-04-03T03:06:20.822Z,1.33
2023-04-03T03:11:23.566Z,1.92
2023-04-03T03:16:26.454Z,1.25
2023-04-03T03:21:30.703Z,1.90
2023-04-03T03:26:33.577Z,1.70
2023-04-03T03:31:38.508Z,1.48
2023-04-03T03:36:42.796Z,1.10
2023-04-03T03:41:46.144Z,0.80
2023-04-03T03:46:49.059Z,2.03
2023-04-03T03:51:54.495Z,1.35
2023-04-03T03:56:57.610Z,0.93
2023-04-03T04:02:02.071Z,1.70
2023-04-03T04:07:06.623Z,1.45
2023-04-03T04:12:10.713Z,1.70
2023-04-03T04:17:14.629Z,1.80
2023-04-03T04:22:18.832Z,2.25
2023-04-03T04:27:21.801Z,3.10
2023-04-03T04:32:25.374Z,3.50
2023-04-03T04:37:30.286Z,2.28
2023-04-03T04:42:33.791Z,3.10
2023-04-03T04:47:37.355Z,2.08
2023-04-03T04:52:42.618Z,2.50
2023-04-03T04:57:46.071Z,1.58
2023-04-03T05:02:49.868Z,1.77
2023-04-03T05:07:56.502Z,1.83
2023-04-03T05:13:00.162Z,2.03
2023-04-03T05:18:03.630Z,2.08
2023-04-03T05:23:08.477Z,1.90
2023-04-03T05:28:12.448Z,1.90
2023-04-03T05:33:15.364Z,2.40
2023-04-03T05:38:26.607Z,2.45
2023-04-03T05:43:31.144Z,1.80
2023-04-03T05:48:34.218Z,1.70
2023-04-03T05:53:39.268Z,3.28
2023-04-03T05:58:42.681Z,2.08
2023-04-03T06:03:46.058Z,2.00
2023-04-03T06:08:51.141Z,4.00
2023-04-03T06:13:54.709Z,2.17
2023-04-03T06:18:58.075Z,1.55
2023-04-03T06:24:03.056Z,1.83
2023-04-03T06:29:06.190Z,1.95
2023-04-03T06:34:09.713Z,2.03
2023-04-03T06:39:16.449Z,2.10
2023-04-03T06:44:20.363Z,1.70
2023-04-03T06:49:24.136Z,2.20
2023-04-03T06:54:28.325Z,2.55
2023-04-03T06:59:33.236Z,2.50
2023-04-03T07:04:37.322Z,2.70
2023-04-03T07:09:42.237Z,3.78
2023-04-03T07:14:45.955Z,2.85
2023-04-03T07:19:51.419Z,2.22
2023-04-03T07:24:57.105Z,2.85
2023-04-03T07:30:01.612Z,2.92
2023-04-03T07:35:04.676Z,3.05
2023-04-03T07:40:11.016Z,3.75
2023-04-03T07:45:14.171Z,3.33
2023-04-03T07:50:19.668Z,1.75
2023-04-03T07:55:23.924Z,2.63
2023-04-03T08:00:26.948Z,2.15
2023-04-03T08:05:29.832Z,4.82
2023-04-03T08:10:34.104Z,4.13
2023-04-03T08:15:37.862Z,3.45
2023-04-03T08:20:41.892Z,2.97
2023-04-03T08:25:46.555Z,2.40
2023-04-03T08:30:51.934Z,2.22
2023-04-03T08:35:54.802Z,2.15
2023-04-03T08:41:16.344Z,2.97
2023-04-03T08:46:24.594Z,1.88
2023-04-03T08:51:29.032Z,2.03
2023-04-03T08:56:35.741Z,2.65
2023-04-03T09:01:42.030Z,2.30
2023-04-03T09:06:49.786Z,2.05
2023-04-03T09:12:02.556Z,2.42
2023-04-03T09:17:13.211Z,2.20
2023-04-03T09:22:19.574Z,2.75
2023-04-03T09:27:23.904Z,2.43
2023-04-03T09:32:31.588Z,2.60
2023-04-03T09:37:41.104Z,2.45
2023-04-03T09:42:48.915Z,2.75
2023-04-03T09:48:10.379Z,2.03
2023-04-03T09:53:30.108Z,2.25
2023-04-03T09:58:49.561Z,2.28
2023-04-03T10:04:06.935Z,2.60
2023-04-03T10:09:20.283Z,2.42
2023-04-03T10:14:24.544Z,2.38
2023-04-03T10:19:37.651Z,2.28
2023-04-03T10:24:50.603Z,2.13
2023-04-03T10:30:02.078Z,2.40
2023-04-03T10:35:15.994Z,1.88
2023-04-03T10:40:32.136Z,2.00
2023-04-03T10:45:51.660Z,1.33
2023-04-03T10:51:04.372Z,1.92
2023-04-03T10:56:15.628Z,2.60
2023-04-03T11:01:25.387Z,2.13
2023-04-03T11:06:35.793Z,2.70
2023-04-03T11:11:41.925Z,2.42
2023-04-03T11:16:54.420Z,1.50
2023-04-03T11:22:03.261Z,1.48
2023-04-03T11:27:11.146Z,1.38
2023-04-03T11:32:32.351Z,1.97
2023-04-03T11:37:38.814Z,2.03
2023-04-03T11:42:43.685Z,2.43
2023-04-03T11:47:50.403Z,2.03
2023-04-03T11:53:29.209Z,2.00
2023-04-03T11:58:34.705Z,2.10
2023-04-03T12:04:17.139Z,2.15
2023-04-03T12:10:04.712Z,1.70
2023-04-03T12:15:50.895Z,2.75
2023-04-03T12:26:22.513Z,2.00
2023-04-03T12:31:35.020Z,2.28
2023-04-03T12:36:48.896Z,2.00
2023-04-03T12:41:59.676Z,1.90
2023-04-03T12:47:08.443Z,2.00
2023-04-03T12:52:30.674Z,1.58
2023-04-03T12:57:34.788Z,2.20
2023-04-03T13:02:41.873Z,1.55
2023-04-03T13:07:51.961Z,1.73
2023-04-03T13:12:57.938Z,1.60
2023-04-03T13:18:03.669Z,1.35
2023-04-03T13:23:10.268Z,1.40
2023-04-03T13:33:23.776Z,1.60
2023-04-03T13:38:32.771Z,1.98
2023-04-03T13:43:41.375Z,1.58
2023-04-03T13:48:47.268Z,2.13
2023-04-03T13:53:55.165Z,7.50
2023-04-03T13:59:09.991Z,1.35
2023-04-03T14:04:17.370Z,1.90
2023-04-03T14:09:23.759Z,3.15
2023-04-03T14:14:32.564Z,3.85
2023-04-03T14:19:37.829Z,3.28
2023-04-03T14:24:42.006Z,3.42
2023-04-03T14:29:44.746Z,3.08
2023-04-03T14:34:48.374Z,5.30
2023-04-03T14:39:54.949Z,3.05
2023-04-03T14:44:57.686Z,2.20
2023-04-03T14:50:01.944Z,1.70
2023-04-03T14:55:10.503Z,5.43
2023-04-03T15:00:17.804Z,2.63
2023-04-03T15:10:31.868Z,2.10
2023-04-03T15:15:36.591Z,2.20
2023-04-03T15:20:39.731Z,1.65
2023-04-03T15:25:44.809Z,1.25
2023-04-03T15:30:48.163Z,2.00
2023-04-03T15:35:51.277Z,2.35
2023-04-03T15:40:55.994Z,1.85
2023-04-03T15:46:00.583Z,3.10
2023-04-03T15:51:03.355Z,2.20
2023-04-03T15:56:09.491Z,1.70
2023-04-03T16:01:13.854Z,2.92
2023-04-03T16:06:18.432Z,1.73
2023-04-03T16:11:22.903Z,2.10
2023-04-03T16:16:26.942Z,1.77
2023-04-03T16:21:30.123Z,2.22
2023-04-03T16:26:34.533Z,1.80
2023-04-03T16:31:37.405Z,2.28
2023-04-03T16:36:40.398Z,2.63
2023-04-03T16:41:44.535Z,3.45
2023-04-03T16:46:48.373Z,2.75
2023-04-03T16:51:51.489Z,2.42
2023-04-03T16:56:55.940Z,1.67
2023-04-03T17:01:58.945Z,1.92
2023-04-03T17:07:06.959Z,2.47
2023-04-03T17:12:11.055Z,2.10
2023-04-03T17:17:16.903Z,1.57
2023-04-03T17:22:20.868Z,1.30
2023-04-03T17:27:26.054Z,1.52
2023-04-03T17:32:28.884Z,1.80
2023-04-03T17:37:31.678Z,3.38
2023-04-03T17:42:35.785Z,4.85
2023-04-03T17:47:40.007Z,4.47
2023-04-03T17:52:44.405Z,5.50
2023-04-03T17:57:50.922Z,5.47
2023-04-03T18:02:55.236Z,8.23
2023-04-03T18:07:59.097Z,10.57
2023-04-03T18:13:03.350Z,8.85
2023-04-03T18:18:06.288Z,10.95
2023-04-03T18:23:11.394Z,3.10
2023-04-03T18:28:17.017Z,2.22
2023-04-03T18:33:19.752Z,2.75
2023-04-03T18:38:22.560Z,2.15
2023-04-03T18:43:28.096Z,2.40
2023-04-03T18:48:31.319Z,3.15
2023-04-03T18:53:34.445Z,4.38
2023-04-03T18:58:39.015Z,4.07
2023-04-03T19:03:43.032Z,5.03
2023-04-03T19:08:47.627Z,6.78
2023-04-03T19:14:04.517Z,5.28
2023-04-03T19:19:14.789Z,3.47
2023-04-03T19:24:20.193Z,2.55
2023-04-03T19:29:24.341Z,2.75
2023-04-03T19:34:28.066Z,2.72
2023-04-03T19:39:35.036Z,2.80
2023-04-03T19:44:42.367Z,4.72
2023-04-03T19:49:45.182Z,3.22
2023-04-03T19:54:47.872Z,3.42
2023-04-03T19:59:51.990Z,2.60
2023-04-03T20:04:55.283Z,2.58
2023-04-03T20:09:58.626Z,2.85
2023-04-03T20:15:04.038Z,2.85
2023-04-03T20:20:08.011Z,2.58
2023-04-03T20:25:17.504Z,1.92
2023-04-03T20:30:29.066Z,2.58
2023-04-03T20:35:32.667Z,2.33
2023-04-03T20:40:36.016Z,4.43
2023-04-03T20:45:40.477Z,3.33
2023-04-03T20:50:43.397Z,2.40
2023-04-03T20:55:57.063Z,2.92
2023-04-03T21:01:01.940Z,2.33
2023-04-03T21:06:42.608Z,2.22
2023-04-03T21:12:22.511Z,2.70
2023-04-03T21:17:24.972Z,3.17
2023-04-03T21:22:29.065Z,1.73
2023-04-03T21:27:32.616Z,1.90
2023-04-03T21:32:35.310Z,2.17
2023-04-03T21:37:39.478Z,2.20
2023-04-03T21:42:42.163Z,2.40
2023-04-03T21:47:44.932Z,2.13
2023-04-03T21:52:50.016Z,2.25
2023-04-03T21:57:54.347Z,2.67
2023-04-03T22:03:07.721Z,2.30
2023-04-03T22:08:14.732Z,2.67
2023-04-03T22:13:17.405Z,2.70
2023-04-03T22:18:21.168Z,2.90
2023-04-03T22:23:26.132Z,3.70
2023-04-03T22:28:29.405Z,3.67
2023-04-03T22:33:32.359Z,2.30
2023-04-03T22:38:36.959Z,3.00
2023-04-03T22:43:40.687Z,2.03
2023-04-03T22:48:45.261Z,2.35
2023-04-03T22:53:49.381Z,1.88
2023-04-03T22:58:52.366Z,3.03
2023-04-03T23:03:55.776Z,1.85
2023-04-03T23:09:00.128Z,2.20
2023-04-03T23:14:03.118Z,2.25
2023-04-03T23:19:07.281Z,2.10
2023-04-03T23:24:11.542Z,2.17
2023-04-03T23:29:14.261Z,2.65
2023-04-03T23:34:17.224Z,3.08
2023-04-03T23:39:23.033Z,1.83
2023-04-03T23:44:25.726Z,2.30
2023-04-03T23:49:28.716Z,2.53
2023-04-03T23:54:33.354Z,2.88
2023-04-03T23:59:36.119Z,3.35
